sensor_id;sensor_type;location;lat;lon;timestamp;pressure;altitude;pressure_sealevel;temperature;humidity
76352;BME280;65179;47.786;19.138;2023-01-01T00:01:17;101408.41;;;2.74;92.91
76352;BME280;65179;47.786;19.138;2023-01-01T00:03:48;101409.09;;;2.85;92.89
76352;BME280;65179;47.786;19.138;2023-01-01T00:06:13;101405.56;;;2.85;93.00
76352;BME280;65179;47.786;19.138;2023-01-01T00:08:39;101405.41;;;2.86;93.14
76352;BME280;65179;47.786;19.138;2023-01-01T00:11:07;101395.53;;;2.87;93.33
76352;BME280;65179;47.786;19.138;2023-01-01T00:13:34;101397.06;;;2.89;93.47
76352;BME280;65179;47.786;19.138;2023-01-01T00:16:07;101408.50;;;2.91;93.51
76352;BME280;65179;47.786;19.138;2023-01-01T00:18:33;101411.88;;;2.93;93.69
76352;BME280;65179;47.786;19.138;2023-01-01T00:21:07;101405.53;;;2.94;93.89
76352;BME280;65179;47.786;19.138;2023-01-01T00:23:33;101408.06;;;2.96;94.27
76352;BME280;65179;47.786;19.138;2023-01-01T00:25:59;101399.87;;;2.97;94.54
76352;BME280;65179;47.786;19.138;2023-01-01T00:28:25;101402.28;;;3.00;94.79
76352;BME280;65179;47.786;19.138;2023-01-01T00:30:50;101395.47;;;3.06;95.01
76352;BME280;65179;47.786;19.138;2023-01-01T00:33:16;101401.25;;;3.11;94.97
76352;BME280;65179;47.786;19.138;2023-01-01T00:35:41;101396.56;;;3.13;95.01
76352;BME280;65179;47.786;19.138;2023-01-01T00:38:07;101402.91;;;3.12;95.03
76352;BME280;65179;47.786;19.138;2023-01-01T00:40:32;101390.34;;;3.13;94.81
76352;BME280;65179;47.786;19.138;2023-01-01T00:42:58;101391.47;;;3.10;94.96
76352;BME280;65179;47.786;19.138;2023-01-01T00:45:23;101397.69;;;3.11;94.99
76352;BME280;65179;47.786;19.138;2023-01-01T00:47:50;101390.34;;;3.13;94.92
76352;BME280;65179;47.786;19.138;2023-01-01T00:50:17;101397.53;;;3.12;94.87
76352;BME280;65179;47.786;19.138;2023-01-01T00:52:43;101395.03;;;3.11;94.89
76352;BME280;65179;47.786;19.138;2023-01-01T00:55:09;101403.06;;;3.11;94.86
76352;BME280;65179;47.786;19.138;2023-01-01T00:57:35;101405.91;;;3.09;94.87
76352;BME280;65179;47.786;19.138;2023-01-01T01:00:01;101407.03;;;3.06;94.98
76352;BME280;65179;47.786;19.138;2023-01-01T01:02:26;101400.97;;;3.04;95.09
76352;BME280;65179;47.786;19.138;2023-01-01T01:04:51;101406.19;;;3.06;95.14
76352;BME280;65179;47.786;19.138;2023-01-01T01:07:17;101405.06;;;3.08;95.19
76352;BME280;65179;47.786;19.138;2023-01-01T01:09:42;101400.66;;;3.07;95.06
76352;BME280;65179;47.786;19.138;2023-01-01T01:12:08;101410.41;;;3.08;95.03
76352;BME280;65179;47.786;19.138;2023-01-01T01:14:33;101413.81;;;3.11;95.09
76352;BME280;65179;47.786;19.138;2023-01-01T01:16:59;101418.47;;;3.08;95.20
76352;BME280;65179;47.786;19.138;2023-01-01T01:19:24;101412.13;;;3.10;95.36
76352;BME280;65179;47.786;19.138;2023-01-01T01:21:50;101410.41;;;3.08;95.55
76352;BME280;65179;47.786;19.138;2023-01-01T01:24:16;101397.97;;;3.07;95.61
76352;BME280;65179;47.786;19.138;2023-01-01T01:26:42;101402.66;;;3.05;95.65
76352;BME280;65179;47.786;19.138;2023-01-01T01:29:07;101406.34;;;3.04;95.76
76352;BME280;65179;47.786;19.138;2023-01-01T01:31:33;101407.91;;;3.07;95.73
76352;BME280;65179;47.786;19.138;2023-01-01T01:34:00;101413.25;;;3.07;95.68
76352;BME280;65179;47.786;19.138;2023-01-01T01:36:29;101408.44;;;3.11;95.55
76352;BME280;65179;47.786;19.138;2023-01-01T01:38:57;101407.75;;;3.08;95.60
76352;BME280;65179;47.786;19.138;2023-01-01T01:41:24;101406.87;;;3.08;95.63
76352;BME280;65179;47.786;19.138;2023-01-01T01:43:53;101408.59;;;3.09;95.58
76352;BME280;65179;47.786;19.138;2023-01-01T01:46:26;101412.41;;;3.06;95.64
76352;BME280;65179;47.786;19.138;2023-01-01T01:48:54;101411.12;;;3.11;95.53
76352;BME280;65179;47.786;19.138;2023-01-01T01:51:27;101409.72;;;3.06;95.50
76352;BME280;65179;47.786;19.138;2023-01-01T01:53:57;101401.25;;;3.01;95.59
76352;BME280;65179;47.786;19.138;2023-01-01T01:56:33;101411.00;;;3.02;95.53
76352;BME280;65179;47.786;19.138;2023-01-01T01:59:02;101407.47;;;3.02;95.54
76352;BME280;65179;47.786;19.138;2023-01-01T02:01:28;101411.28;;;2.99;95.48
76352;BME280;65179;47.786;19.138;2023-01-01T02:03:58;101407.63;;;3.00;95.46
76352;BME280;65179;47.786;19.138;2023-01-01T02:06:25;101403.13;;;3.01;95.34
76352;BME280;65179;47.786;19.138;2023-01-01T02:08:52;101404.62;;;3.03;95.49
76352;BME280;65179;47.786;19.138;2023-01-01T02:11:18;101415.25;;;3.05;95.61
76352;BME280;65179;47.786;19.138;2023-01-01T02:13:44;101408.88;;;3.06;95.52
76352;BME280;65179;47.786;19.138;2023-01-01T02:16:20;101403.94;;;3.01;95.72
76352;BME280;65179;47.786;19.138;2023-01-01T02:30:00;101419.50;;;2.98;95.83
76352;BME280;65179;47.786;19.138;2023-01-01T02:32:39;101420.63;;;2.95;95.75
76352;BME280;65179;47.786;19.138;2023-01-01T02:35:17;101410.91;;;2.94;95.70
76352;BME280;65179;47.786;19.138;2023-01-01T02:38:17;101421.62;;;2.94;95.57
76352;BME280;65179;47.786;19.138;2023-01-01T02:41:00;101416.56;;;2.91;95.46
76352;BME280;65179;47.786;19.138;2023-01-01T02:43:27;101417.53;;;2.90;95.39
76352;BME280;65179;47.786;19.138;2023-01-01T02:45:52;101423.75;;;2.91;95.38
76352;BME280;65179;47.786;19.138;2023-01-01T03:10:15;101426.31;;;2.83;95.54
76352;BME280;65179;47.786;19.138;2023-01-01T03:12:53;101424.50;;;2.74;95.41
76352;BME280;65179;47.786;19.138;2023-01-01T03:20:34;101408.56;;;2.72;95.26
76352;BME280;65179;47.786;19.138;2023-01-01T03:23:06;101413.06;;;2.72;95.20
76352;BME280;65179;47.786;19.138;2023-01-01T03:25:41;101399.81;;;2.70;95.21
76352;BME280;65179;47.786;19.138;2023-01-01T03:28:13;101407.44;;;2.75;95.16
76352;BME280;65179;47.786;19.138;2023-01-01T03:30:43;101399.50;;;2.73;95.21
76352;BME280;65179;47.786;19.138;2023-01-01T03:35:46;101399.94;;;2.78;95.19
76352;BME280;65179;47.786;19.138;2023-01-01T03:38:27;101406.00;;;2.80;95.54
76352;BME280;65179;47.786;19.138;2023-01-01T03:40:59;101409.41;;;2.73;95.67
76352;BME280;65179;47.786;19.138;2023-01-01T03:43:38;101403.47;;;2.79;95.55
76352;BME280;65179;47.786;19.138;2023-01-01T03:46:07;101400.91;;;2.77;95.62
76352;BME280;65179;47.786;19.138;2023-01-01T03:48:34;101401.91;;;2.76;95.62
76352;BME280;65179;47.786;19.138;2023-01-01T03:57:03;101404.81;;;2.92;95.26
76352;BME280;65179;47.786;19.138;2023-01-01T03:59:39;101397.50;;;2.94;95.23
76352;BME280;65179;47.786;19.138;2023-01-01T04:02:10;101393.53;;;2.98;95.24
76352;BME280;65179;47.786;19.138;2023-01-01T04:04:38;101388.00;;;3.00;95.14
76352;BME280;65179;47.786;19.138;2023-01-01T04:07:04;101389.84;;;2.99;95.16
76352;BME280;65179;47.786;19.138;2023-01-01T04:09:32;101404.78;;;3.02;95.15
76352;BME280;65179;47.786;19.138;2023-01-01T04:11:59;101399.59;;;3.00;95.17
76352;BME280;65179;47.786;19.138;2023-01-01T04:14:34;101402.28;;;3.00;95.12
76352;BME280;65179;47.786;19.138;2023-01-01T04:17:01;101399.28;;;3.03;94.97
76352;BME280;65179;47.786;19.138;2023-01-01T04:19:27;101403.94;;;3.01;95.14
76352;BME280;65179;47.786;19.138;2023-01-01T04:21:52;101400.28;;;3.02;95.22
76352;BME280;65179;47.786;19.138;2023-01-01T04:24:18;101400.28;;;3.02;95.30
76352;BME280;65179;47.786;19.138;2023-01-01T04:26:44;101398.56;;;3.01;95.59
76352;BME280;65179;47.786;19.138;2023-01-01T04:29:10;101403.13;;;3.01;95.76
76352;BME280;65179;47.786;19.138;2023-01-01T04:31:35;101402.28;;;3.00;95.98
76352;BME280;65179;47.786;19.138;2023-01-01T04:34:01;101401.41;;;3.00;96.02
76352;BME280;65179;47.786;19.138;2023-01-01T04:36:27;101406.94;;;2.98;96.24
76352;BME280;65179;47.786;19.138;2023-01-01T04:38:52;101396.50;;;2.95;96.37
76352;BME280;65179;47.786;19.138;2023-01-01T04:41:18;101407.66;;;2.91;96.42
76352;BME280;65179;47.786;19.138;2023-01-01T04:43:47;101402.28;;;2.91;96.37
76352;BME280;65179;47.786;19.138;2023-01-01T04:46:17;101405.81;;;2.91;96.32
76352;BME280;65179;47.786;19.138;2023-01-01T04:48:43;101403.41;;;2.88;96.27
76352;BME280;65179;47.786;19.138;2023-01-01T04:51:11;101405.41;;;2.86;96.28
76352;BME280;65179;47.786;19.138;2023-01-01T04:53:37;101410.78;;;2.86;96.31
76352;BME280;65179;47.786;19.138;2023-01-01T04:56:07;101412.47;;;2.87;96.24
76352;BME280;65179;47.786;19.138;2023-01-01T04:58:35;101406.09;;;2.88;96.33
76352;BME280;65179;47.786;19.138;2023-01-01T05:01:01;101410.34;;;2.91;96.25
76352;BME280;65179;47.786;19.138;2023-01-01T05:03:27;101403.13;;;2.91;96.23
76352;BME280;65179;47.786;19.138;2023-01-01T05:06:07;101405.97;;;2.90;96.20
76352;BME280;65179;47.786;19.138;2023-01-01T05:08:35;101408.34;;;2.93;96.27
76352;BME280;65179;47.786;19.138;2023-01-01T05:11:08;101407.66;;;2.91;96.25
76352;BME280;65179;47.786;19.138;2023-01-01T05:13:35;101405.66;;;2.93;96.22
76352;BME280;65179;47.786;19.138;2023-01-01T05:16:03;101407.13;;;2.87;96.33
76352;BME280;65179;47.786;19.138;2023-01-01T05:18:28;101396.37;;;2.87;96.29
76352;BME280;65179;47.786;19.138;2023-01-01T05:20:58;101413.44;;;2.86;96.29
76352;BME280;65179;47.786;19.138;2023-01-01T05:23:24;101410.06;;;2.84;96.29
76352;BME280;65179;47.786;19.138;2023-01-01T05:25:50;101411.19;;;2.82;96.23
76352;BME280;65179;47.786;19.138;2023-01-01T05:28:15;101405.56;;;2.75;96.27
76352;BME280;65179;47.786;19.138;2023-01-01T05:30:40;101416.19;;;2.77;96.26
76352;BME280;65179;47.786;19.138;2023-01-01T05:33:06;101419.56;;;2.79;96.17
76352;BME280;65179;47.786;19.138;2023-01-01T05:35:31;101419.69;;;2.77;96.19
76352;BME280;65179;47.786;19.138;2023-01-01T05:37:57;101421.38;;;2.78;96.18
76352;BME280;65179;47.786;19.138;2023-01-01T05:40:22;101427.03;;;2.75;96.14
76352;BME280;65179;47.786;19.138;2023-01-01T05:42:48;101422.69;;;2.74;96.11
76352;BME280;65179;47.786;19.138;2023-01-01T05:45:13;101429.44;;;2.69;96.14
76352;BME280;65179;47.786;19.138;2023-01-01T05:47:39;101437.91;;;2.64;96.14
76352;BME280;65179;47.786;19.138;2023-01-01T05:50:05;101432.31;;;2.58;96.15
76352;BME280;65179;47.786;19.138;2023-01-01T05:52:30;101448.78;;;2.63;96.14
76352;BME280;65179;47.786;19.138;2023-01-01T05:54:56;101451.63;;;2.61;96.18
76352;BME280;65179;47.786;19.138;2023-01-01T05:57:22;101454.31;;;2.61;96.18
76352;BME280;65179;47.786;19.138;2023-01-01T05:59:48;101448.53;;;2.66;96.20
76352;BME280;65179;47.786;19.138;2023-01-01T06:02:13;101445.53;;;2.69;96.26
76352;BME280;65179;47.786;19.138;2023-01-01T06:04:39;101460.22;;;2.74;96.19
76352;BME280;65179;47.786;19.138;2023-01-01T06:07:04;101470.09;;;2.74;96.22
76352;BME280;65179;47.786;19.138;2023-01-01T06:09:30;101475.88;;;2.79;96.14
76352;BME280;65179;47.786;19.138;2023-01-01T06:11:55;101474.75;;;2.81;96.16
76352;BME280;65179;47.786;19.138;2023-01-01T06:14:21;101474.59;;;2.83;96.13
76352;BME280;65179;47.786;19.138;2023-01-01T06:16:46;101482.81;;;2.81;96.25
76352;BME280;65179;47.786;19.138;2023-01-01T06:19:11;101472.19;;;2.80;96.33
76352;BME280;65179;47.786;19.138;2023-01-01T06:21:37;101478.25;;;2.82;96.32
76352;BME280;65179;47.786;19.138;2023-01-01T06:24:02;101475.47;;;2.83;96.31
76352;BME280;65179;47.786;19.138;2023-01-01T06:26:30;101480.25;;;2.80;96.27
76352;BME280;65179;47.786;19.138;2023-01-01T06:28:57;101486.47;;;2.80;96.17
76352;BME280;65179;47.786;19.138;2023-01-01T06:31:23;101484.78;;;2.79;96.14
76352;BME280;65179;47.786;19.138;2023-01-01T06:33:49;101482.94;;;2.80;96.15
76352;BME280;65179;47.786;19.138;2023-01-01T06:36:19;101480.25;;;2.80;96.16
76352;BME280;65179;47.786;19.138;2023-01-01T06:38:47;101491.69;;;2.82;96.14
76352;BME280;65179;47.786;19.138;2023-01-01T06:41:16;101488.16;;;2.81;96.07
76352;BME280;65179;47.786;19.138;2023-01-01T06:43:43;101491.81;;;2.80;96.14
76352;BME280;65179;47.786;19.138;2023-01-01T06:48:45;101476.28;;;2.84;96.02
76352;BME280;65179;47.786;19.138;2023-01-01T06:51:19;101481.37;;;2.87;95.96
76352;BME280;65179;47.786;19.138;2023-01-01T06:53:45;101481.22;;;2.88;95.94
76352;BME280;65179;47.786;19.138;2023-01-01T06:56:11;101492.25;;;2.85;96.06
76352;BME280;65179;47.786;19.138;2023-01-01T06:58:36;101495.31;;;2.90;96.08
76352;BME280;65179;47.786;19.138;2023-01-01T07:01:04;101497.03;;;2.91;96.11
76352;BME280;65179;47.786;19.138;2023-01-01T07:03:29;101493.06;;;2.95;96.08
76352;BME280;65179;47.786;19.138;2023-01-01T07:05:55;101490.13;;;2.98;96.05
76352;BME280;65179;47.786;19.138;2023-01-01T07:08:20;101491.66;;;3.01;96.14
76352;BME280;65179;47.786;19.138;2023-01-01T07:10:46;101496.72;;;3.04;96.27
76352;BME280;65179;47.786;19.138;2023-01-01T07:13:11;101503.66;;;3.06;96.33
76352;BME280;65179;47.786;19.138;2023-01-01T07:15:37;101494.59;;;3.07;96.43
76352;BME280;65179;47.786;19.138;2023-01-01T07:18:02;101498.97;;;3.08;96.57
76352;BME280;65179;47.786;19.138;2023-01-01T07:20:28;101496.00;;;3.12;96.50
76352;BME280;65179;47.786;19.138;2023-01-01T07:22:53;101501.22;;;3.13;96.55
76352;BME280;65179;47.786;19.138;2023-01-01T07:25:18;101506.44;;;3.15;96.60
76352;BME280;65179;47.786;19.138;2023-01-01T07:27:44;101511.22;;;3.21;96.53
76352;BME280;65179;47.786;19.138;2023-01-01T07:30:11;101516.31;;;3.24;96.36
76352;BME280;65179;47.786;19.138;2023-01-01T07:32:37;101517.72;;;3.28;96.65
76352;BME280;65179;47.786;19.138;2023-01-01T07:35:03;101501.31;;;3.31;96.79
76352;BME280;65179;47.786;19.138;2023-01-01T07:37:28;101509.06;;;3.34;96.65
76352;BME280;65179;47.786;19.138;2023-01-01T07:39:54;101499.03;;;3.36;96.68
76352;BME280;65179;47.786;19.138;2023-01-01T07:42:19;101515.72;;;3.39;96.65
76352;BME280;65179;47.786;19.138;2023-01-01T07:44:45;101526.13;;;3.42;96.83
76352;BME280;65179;47.786;19.138;2023-01-01T07:47:28;101522.19;;;3.46;96.98
76352;BME280;65179;47.786;19.138;2023-01-01T07:49:54;101528.97;;;3.50;97.00
76352;BME280;65179;47.786;19.138;2023-01-01T07:52:19;101532.50;;;3.51;97.05
76352;BME280;65179;47.786;19.138;2023-01-01T07:54:45;101535.47;;;3.48;97.01
76352;BME280;65179;47.786;19.138;2023-01-01T07:57:10;101541.69;;;3.48;96.94
76352;BME280;65179;47.786;19.138;2023-01-01T07:59:36;101542.81;;;3.46;96.88
76352;BME280;65179;47.786;19.138;2023-01-01T08:02:02;101553.25;;;3.49;96.84
76352;BME280;65179;47.786;19.138;2023-01-01T08:04:27;101555.81;;;3.50;96.85
76352;BME280;65179;47.786;19.138;2023-01-01T08:06:53;101558.34;;;3.52;96.82
76352;BME280;65179;47.786;19.138;2023-01-01T08:09:18;101559.47;;;3.59;96.79
76352;BME280;65179;47.786;19.138;2023-01-01T08:11:44;101554.09;;;3.59;96.85
76352;BME280;65179;47.786;19.138;2023-01-01T08:14:10;101555.75;;;3.60;96.92
76352;BME280;65179;47.786;19.138;2023-01-01T08:16:35;101559.03;;;3.63;96.80
76352;BME280;65179;47.786;19.138;2023-01-01T08:19:01;101567.91;;;3.64;96.90
76352;BME280;65179;47.786;19.138;2023-01-01T08:21:26;101564.50;;;3.62;96.96
76352;BME280;65179;47.786;19.138;2023-01-01T08:23:52;101558.87;;;3.65;97.01
76352;BME280;65179;47.786;19.138;2023-01-01T08:26:29;101569.31;;;3.68;96.99
76352;BME280;65179;47.786;19.138;2023-01-01T08:28:56;101575.78;;;3.75;96.89
76352;BME280;65179;47.786;19.138;2023-01-01T08:31:22;101580.88;;;3.78;96.80
76352;BME280;65179;47.786;19.138;2023-01-01T08:33:47;101578.03;;;3.79;96.88
76352;BME280;65179;47.786;19.138;2023-01-01T08:36:13;101576.03;;;3.81;97.00
76352;BME280;65179;47.786;19.138;2023-01-01T08:38:41;101577.16;;;3.79;97.02
76352;BME280;65179;47.786;19.138;2023-01-01T08:41:06;101584.25;;;3.80;97.07
76352;BME280;65179;47.786;19.138;2023-01-01T08:43:32;101578.44;;;3.84;97.00
76352;BME280;65179;47.786;19.138;2023-01-01T08:45:57;101590.75;;;3.87;96.94
76352;BME280;65179;47.786;19.138;2023-01-01T08:48:23;101594.12;;;3.89;96.87
76352;BME280;65179;47.786;19.138;2023-01-01T08:50:56;101597.50;;;3.91;96.73
76352;BME280;65179;47.786;19.138;2023-01-01T08:53:25;101583.06;;;3.92;96.71
76352;BME280;65179;47.786;19.138;2023-01-01T08:55:55;101590.44;;;3.90;96.65
76352;BME280;65179;47.786;19.138;2023-01-01T08:58:21;101601.88;;;3.92;96.66
76352;BME280;65179;47.786;19.138;2023-01-01T09:00:46;101597.22;;;3.94;96.61
76352;BME280;65179;47.786;19.138;2023-01-01T09:03:11;101605.81;;;3.98;96.55
76352;BME280;65179;47.786;19.138;2023-01-01T09:05:37;101594.22;;;3.97;96.47
76352;BME280;65179;47.786;19.138;2023-01-01T09:08:03;101601.16;;;4.00;96.40
76352;BME280;65179;47.786;19.138;2023-01-01T09:10:28;101598.47;;;4.00;96.44
76352;BME280;65179;47.786;19.138;2023-01-01T09:12:54;101601.00;;;4.01;96.44
76352;BME280;65179;47.786;19.138;2023-01-01T09:15:19;101587.56;;;4.01;96.56
76352;BME280;65179;47.786;19.138;2023-01-01T09:17:45;101588.66;;;4.08;96.62
76352;BME280;65179;47.786;19.138;2023-01-01T09:20:10;101590.91;;;4.13;96.63
76352;BME280;65179;47.786;19.138;2023-01-01T09:22:36;101582.69;;;4.14;96.58
76352;BME280;65179;47.786;19.138;2023-01-01T09:25:01;101574.31;;;4.17;96.57
76352;BME280;65179;47.786;19.138;2023-01-01T09:27:27;101580.69;;;4.16;96.35
76352;BME280;65179;47.786;19.138;2023-01-01T09:29:52;101583.09;;;4.19;96.13
76352;BME280;65179;47.786;19.138;2023-01-01T09:32:18;101582.63;;;4.24;95.94
76352;BME280;65179;47.786;19.138;2023-01-01T09:34:43;101589.41;;;4.28;95.91
76352;BME280;65179;47.786;19.138;2023-01-01T09:37:09;101590.78;;;4.32;95.90
76352;BME280;65179;47.786;19.138;2023-01-01T09:39:34;101591.31;;;4.35;95.89
76352;BME280;65179;47.786;19.138;2023-01-01T09:47:43;101596.19;;;4.49;95.88
76352;BME280;65179;47.786;19.138;2023-01-01T09:50:17;101594.03;;;4.53;95.75
76352;BME280;65179;47.786;19.138;2023-01-01T09:53:02;101596.00;;;4.60;95.65
76352;BME280;65179;47.786;19.138;2023-01-01T09:55:52;101591.59;;;4.59;95.57
76352;BME280;65179;47.786;19.138;2023-01-01T09:58:24;101597.38;;;4.65;95.51
76352;BME280;65179;47.786;19.138;2023-01-01T10:00:53;101598.47;;;4.72;95.49
76352;BME280;65179;47.786;19.138;2023-01-01T10:08:46;101596.37;;;4.83;95.27
76352;BME280;65179;47.786;19.138;2023-01-01T10:14:36;101587.94;;;4.96;95.18
76352;BME280;65179;47.786;19.138;2023-01-01T10:17:26;101579.88;;;4.96;94.97
76352;BME280;65179;47.786;19.138;2023-01-01T10:19:57;101577.22;;;5.04;94.88
76352;BME280;65179;47.786;19.138;2023-01-01T10:22:37;101579.28;;;5.10;94.76
76352;BME280;65179;47.786;19.138;2023-01-01T10:25:07;101585.75;;;5.17;94.64
76352;BME280;65179;47.786;19.138;2023-01-01T10:27:44;101574.50;;;5.21;94.49
76352;BME280;65179;47.786;19.138;2023-01-01T10:30:15;101581.44;;;5.24;94.18
76352;BME280;65179;47.786;19.138;2023-01-01T10:32:41;101576.09;;;5.32;94.14
76352;BME280;65179;47.786;19.138;2023-01-01T10:35:17;101575.47;;;5.38;93.99
76352;BME280;65179;47.786;19.138;2023-01-01T10:37:43;101566.75;;;5.44;93.82
76352;BME280;65179;47.786;19.138;2023-01-01T10:42:46;101553.69;;;5.57;93.62
76352;BME280;65179;47.786;19.138;2023-01-01T10:45:14;101550.69;;;5.60;93.40
76352;BME280;65179;47.786;19.138;2023-01-01T10:50:51;101544.84;;;5.65;93.31
76352;BME280;65179;47.786;19.138;2023-01-01T10:53:28;101541.28;;;5.64;93.28
76352;BME280;65179;47.786;19.138;2023-01-01T10:58:39;101519.41;;;5.67;93.13
76352;BME280;65179;47.786;19.138;2023-01-01T11:01:09;101525.50;;;5.69;93.08
76352;BME280;65179;47.786;19.138;2023-01-01T11:03:35;101515.91;;;5.75;93.18
76352;BME280;65179;47.786;19.138;2023-01-01T11:06:22;101514.56;;;5.79;93.23
76352;BME280;65179;47.786;19.138;2023-01-01T11:08:51;101506.00;;;5.83;93.15
76352;BME280;65179;47.786;19.138;2023-01-01T11:11:26;101504.56;;;5.89;93.24
76352;BME280;65179;47.786;19.138;2023-01-01T11:13:53;101511.44;;;5.91;93.20
76352;BME280;65179;47.786;19.138;2023-01-01T11:16:20;101513.31;;;5.91;93.23
76352;BME280;65179;47.786;19.138;2023-01-01T11:18:46;101509.78;;;5.90;93.29
76352;BME280;65179;47.786;19.138;2023-01-01T11:21:21;101506.06;;;5.91;93.40
76352;BME280;65179;47.786;19.138;2023-01-01T11:24:17;101501.87;;;5.97;93.61
76352;BME280;65179;47.786;19.138;2023-01-01T11:26:43;101493.44;;;6.00;93.38
76352;BME280;65179;47.786;19.138;2023-01-01T11:31:43;101485.91;;;6.03;93.38
76352;BME280;65179;47.786;19.138;2023-01-01T11:34:31;101485.56;;;6.06;93.47
76352;BME280;65179;47.786;19.138;2023-01-01T11:37:28;101488.28;;;6.15;93.56
76352;BME280;65179;47.786;19.138;2023-01-01T11:39:56;101493.88;;;6.21;93.58
76352;BME280;65179;47.786;19.138;2023-01-01T11:42:28;101506.19;;;6.24;93.49
76352;BME280;65179;47.786;19.138;2023-01-01T11:45:00;101501.47;;;6.34;93.62
76352;BME280;65179;47.786;19.138;2023-01-01T11:47:36;101494.75;;;6.38;93.41
76352;BME280;65179;47.786;19.138;2023-01-01T11:50:16;101500.31;;;6.44;93.37
76352;BME280;65179;47.786;19.138;2023-01-01T11:52:48;101489.34;;;6.46;93.34
76352;BME280;65179;47.786;19.138;2023-01-01T11:55:19;101476.53;;;6.48;93.31
76352;BME280;65179;47.786;19.138;2023-01-01T12:00:18;101476.38;;;6.49;93.62
76352;BME280;65179;47.786;19.138;2023-01-01T12:03:18;101477.72;;;6.53;93.78
76352;BME280;65179;47.786;19.138;2023-01-01T12:06:09;101460.19;;;6.57;93.61
76352;BME280;65179;47.786;19.138;2023-01-01T12:08:45;101462.72;;;6.67;94.77
76352;BME280;65179;47.786;19.138;2023-01-01T12:17:13;101470.47;;;6.70;94.73
76352;BME280;65179;47.786;19.138;2023-01-01T12:22:31;101459.66;;;6.78;94.91
76352;BME280;65179;47.786;19.138;2023-01-01T12:24:57;101460.53;;;6.78;94.93
76352;BME280;65179;47.786;19.138;2023-01-01T13:00:13;101467.44;;;6.97;92.92
76352;BME280;65179;47.786;19.138;2023-01-01T13:02:52;101473.84;;;6.96;92.78
76352;BME280;65179;47.786;19.138;2023-01-01T13:05:23;101469.47;;;6.95;92.73
76352;BME280;65179;47.786;19.138;2023-01-01T13:07:54;101473.34;;;6.93;92.60
76352;BME280;65179;47.786;19.138;2023-01-01T13:10:25;101480.59;;;6.92;92.64
76352;BME280;65179;47.786;19.138;2023-01-01T13:12:53;101477.91;;;6.92;92.77
76352;BME280;65179;47.786;19.138;2023-01-01T13:18:25;101482.28;;;6.93;92.95
76352;BME280;65179;47.786;19.138;2023-01-01T13:23:43;101471.31;;;6.95;92.92
76352;BME280;65179;47.786;19.138;2023-01-01T13:34:43;101469.62;;;6.94;93.04
76352;BME280;65179;47.786;19.138;2023-01-01T13:40:21;101464.22;;;6.94;93.21
76352;BME280;65179;47.786;19.138;2023-01-01T13:45:24;101480.94;;;6.97;93.21
76352;BME280;65179;47.786;19.138;2023-01-01T13:48:11;101497.47;;;6.94;93.18
76352;BME280;65179;47.786;19.138;2023-01-01T13:53:57;101504.56;;;6.95;93.33
76352;BME280;65179;47.786;19.138;2023-01-01T13:56:40;101515.37;;;6.95;93.35
76352;BME280;65179;47.786;19.138;2023-01-01T14:12:38;101519.41;;;6.91;94.63
76352;BME280;65179;47.786;19.138;2023-01-01T14:17:49;101510.63;;;6.89;95.11
76352;BME280;65179;47.786;19.138;2023-01-01T14:20:17;101527.69;;;6.89;95.46
76352;BME280;65179;47.786;19.138;2023-01-01T14:22:47;101522.28;;;6.89;95.57
76352;BME280;65179;47.786;19.138;2023-01-01T14:25:22;101518.72;;;6.89;95.53
76352;BME280;65179;47.786;19.138;2023-01-01T14:27:49;101517.38;;;6.85;95.02
76352;BME280;65179;47.786;19.138;2023-01-01T14:30:18;101520.44;;;6.82;94.79
76352;BME280;65179;47.786;19.138;2023-01-01T14:32:44;101513.66;;;6.78;94.78
76352;BME280;65179;47.786;19.138;2023-01-01T14:35:15;101517.38;;;6.77;94.92
76352;BME280;65179;47.786;19.138;2023-01-01T14:37:41;101513.16;;;6.74;94.96
76352;BME280;65179;47.786;19.138;2023-01-01T14:42:34;101521.59;;;6.71;95.13
76352;BME280;65179;47.786;19.138;2023-01-01T14:45:00;101518.06;;;6.71;95.24
76352;BME280;65179;47.786;19.138;2023-01-01T14:47:32;101512.00;;;6.69;95.28
76352;BME280;65179;47.786;19.138;2023-01-01T14:50:25;101513.00;;;6.68;95.35
76352;BME280;65179;47.786;19.138;2023-01-01T14:53:01;101505.94;;;6.67;95.43
76352;BME280;65179;47.786;19.138;2023-01-01T14:55:32;101502.53;;;6.65;95.46
76352;BME280;65179;47.786;19.138;2023-01-01T14:57:59;101507.09;;;6.64;95.51
76352;BME280;65179;47.786;19.138;2023-01-01T15:00:30;101510.78;;;6.63;95.50
76352;BME280;65179;47.786;19.138;2023-01-01T15:03:10;101496.62;;;6.61;95.56
76352;BME280;65179;47.786;19.138;2023-01-01T15:05:36;101495.78;;;6.61;95.58
76352;BME280;65179;47.786;19.138;2023-01-01T15:08:05;101498.47;;;6.61;95.67
76352;BME280;65179;47.786;19.138;2023-01-01T15:10:34;101491.53;;;6.58;95.72
76352;BME280;65179;47.786;19.138;2023-01-01T15:13:04;101501.53;;;6.58;95.76
76352;BME280;65179;47.786;19.138;2023-01-01T15:15:40;101514.34;;;6.56;95.83
76352;BME280;65179;47.786;19.138;2023-01-01T15:21:13;101525.13;;;6.56;96.04
76352;BME280;65179;47.786;19.138;2023-01-01T15:26:47;101537.94;;;6.54;96.13
76352;BME280;65179;47.786;19.138;2023-01-01T15:31:54;101531.72;;;6.53;96.28
76352;BME280;65179;47.786;19.138;2023-01-01T15:34:24;101541.66;;;6.53;96.30
76352;BME280;65179;47.786;19.138;2023-01-01T15:36:52;101544.16;;;6.54;96.34
76352;BME280;65179;47.786;19.138;2023-01-01T15:39:19;101538.28;;;6.51;96.36
76352;BME280;65179;47.786;19.138;2023-01-01T15:41:50;101545.37;;;6.52;96.38
76352;BME280;65179;47.786;19.138;2023-01-01T15:44:26;101549.91;;;6.51;96.40
76352;BME280;65179;47.786;19.138;2023-01-01T15:46:52;101549.06;;;6.51;96.39
76352;BME280;65179;47.786;19.138;2023-01-01T15:49:28;101539.13;;;6.51;96.42